Le Havre, Le Havre Octeville Airport (LFOH)

NameLe Havre Octeville Airport
CityLe Havre
CountryFrance
ICAOLFOH
IATALEH
Altitude95 m
CoordinatesGoogle Map
Live Air TrafficLiveATC.net
METARLFOH 232100Z AUTO 11005KT CAVOK 09/03 Q1032
2019-02-23 21:00:00 Wind: East (110°) 2.57 m/s - Visibility: > 10000 m - Weather: CAVOK - Temperature: 9 °C - Dew point: 3 °C - Humidity: 66.4% - Pressure: 1032 hPa
Statistics

The table below shows the detailed information of all flights to/from Le Havre, Le Havre Octeville Airport (LFOH).